Time;durP1;ratioP1;P1;durP2;ratioP2;P2;SDS_P1;SDS_P2;PMS_P1;PMS_P2;Temp;Humidity;BMP_temperature;BMP_pressure;BME280_temperature;BME280_humidity;BME280_pressure;Samples;Min_cycle;Max_cycle;Signal;HPM_P1;HPM_P2
2023/07/27 00:00:41;;;;;;;;;;;;;;;;;;5115411;28;20357;-14
2023/07/27 00:03:07;;;;;;;;;;;;;;;;;;5115190;28;19908;-14
2023/07/27 00:05:33;;;;;;;;;;;;;;;;;;5114954;28;19915;-15
2023/07/27 00:07:59;;;;;;;;;;;;;;;;;;5115054;28;19908;-14
2023/07/27 00:10:25;;;;;;;;;;;;;;;;;;5115024;28;19908;-15
2023/07/27 00:12:51;;;;;;;;;;;;;;;;;;5115257;28;20311;-14
2023/07/27 00:15:16;;;;;;;;;;;;;;;;;;5114990;28;19908;-15
2023/07/27 00:17:42;;;;;;;;;;;;;;;;;;5114955;28;20028;-14
2023/07/27 00:20:08;;;;;;;;;;;;;;;;;;5114943;28;19931;-14
2023/07/27 00:22:34;;;;;;;;;;;;;;;;;;5115426;28;19908;-14
2023/07/27 00:25:00;;;;;;;;;;;;;;;;;;5118642;28;19959;-14
2023/07/27 00:27:26;;;;;;;;;;;;;;;;;;5119019;28;19915;-13
2023/07/27 00:29:52;;;;;;;;;;;;;;;;;;5118993;28;19920;-14
2023/07/27 00:32:18;;;;;;;;;;;;;;;;;;5100954;28;19960;-15
2023/07/27 00:34:44;;;;;;;;;;;;;;;;;;5118636;28;19908;-14
2023/07/27 00:37:10;;;;;;;;;;;;;;;;;;5119136;28;20379;-16
2023/07/27 00:39:36;;;;;;;;;;;;;;;;;;5119074;28;20235;-15
2023/07/27 00:42:02;;;;;;;;;;;;;;;;;;5118374;28;20369;-14
2023/07/27 00:44:28;;;;;;;;;;;;;;;;;;5118368;28;19911;-15
2023/07/27 00:46:54;;;;;;;;;;;;;;;;;;5118379;28;19919;-14
2023/07/27 00:49:20;;;;;;;;;;;;;;;;;;5118362;28;19912;-14
2023/07/27 00:51:45;;;;;;;;;;;;;;;;;;5118320;28;20351;-14
2023/07/27 00:54:11;;;;;;;;;;;;;;;;;;5118442;28;20330;-14
2023/07/27 00:56:37;;;;;;;;;;;;;;;;;;5118263;28;19937;-14
2023/07/27 00:59:03;;;;;;;;;;;;;;;;;;5118210;28;19908;-13
2023/07/27 01:01:29;;;;;;;;;;;;;;;;;;5118155;28;19908;-13
2023/07/27 01:03:55;;;;;;;;;;;;;;;;;;5117989;28;20361;-14
2023/07/27 01:06:21;;;;;;;;;;;;;;;;;;5118595;28;19933;-14
2023/07/27 01:08:47;;;;;;;;;;;;;;;;;;5117982;28;20342;-15
2023/07/27 01:11:13;;;;;;;;;;;;;;;;;;5118212;28;19923;-15
2023/07/27 01:13:39;;;;;;;;;;;;;;;;;;5118095;28;19918;-15
2023/07/27 01:16:05;;;;;;;;;;;;;;;;;;5099861;28;19998;-15
2023/07/27 01:18:31;;;;;;;;;;;;;;;;;;5118599;28;19908;-15
2023/07/27 01:20:57;;;;;;;;;;;;;;;;;;5117756;28;19915;-14
2023/07/27 01:23:23;;;;;;;;;;;;;;;;;;5117425;28;19907;-14
2023/07/27 01:25:49;;;;;;;;;;;;;;;;;;5117663;28;19924;-16
2023/07/27 01:28:14;;;;;;;;;;;;;;;;;;5117627;28;20266;-15
2023/07/27 01:30:40;;;;;;;;;;;;;;;;;;5118139;28;20011;-14
2023/07/27 01:33:06;;;;;;;;;;;;;;;;;;5117431;28;19990;-13
2023/07/27 01:35:32;;;;;;;;;;;;;;;;;;5117565;28;20334;-15
2023/07/27 01:37:59;;;;;;;;;;;;;;;;;;5117969;28;19908;-15
2023/07/27 01:40:25;;;;;;;;;;;;;;;;;;5117625;28;19969;-14
2023/07/27 01:42:51;;;;;;;;;;;;;;;;;;5117537;28;19965;-14
2023/07/27 01:45:17;;;;;;;;;;;;;;;;;;5117162;28;19919;-15
2023/07/27 01:47:43;;;;;;;;;;;;;;;;;;5117193;28;19912;-14
2023/07/27 01:50:09;;;;;;;;;;;;;;;;;;5117449;28;19999;-15
2023/07/27 01:52:35;;;;;;;;;;;;;;;;;;5117065;28;19954;-14
2023/07/27 01:55:01;;;;;;;;;;;;;;;;;;5117088;28;19912;-15
2023/07/27 01:57:26;;;;;;;;;;;;;;;;;;5117270;28;19918;-14
2023/07/27 01:59:52;;;;;;;;;;;;;;;;;;5116949;28;19943;-14
2023/07/27 02:02:18;;;;;;;;;;;;;;;;;;5116935;28;19916;-14
2023/07/27 02:04:44;;;;;;;;;;;;;;;;;;5117049;28;19960;-14
2023/07/27 02:07:10;;;;;;;;;;;;;;;;;;5117126;28;20318;-15
2023/07/27 02:09:36;;;;;;;;;;;;;;;;;;5116796;28;19908;-15
2023/07/27 02:12:02;;;;;;;;;;;;;;;;;;5116680;28;19911;-14
2023/07/27 02:14:28;;;;;;;;;;;;;;;;;;5116658;28;19907;-15
2023/07/27 02:16:57;;;;;;;;;;;;;;;;;;5117198;28;19980;-15
2023/07/27 02:19:23;;;;;;;;;;;;;;;;;;5116573;28;19951;-15
2023/07/27 02:21:49;;;;;;;;;;;;;;;;;;5116527;28;19908;-14
2023/07/27 02:24:15;;;;;;;;;;;;;;;;;;5116711;28;19920;-13
2023/07/27 02:26:41;;;;;;;;;;;;;;;;;;5116407;28;19958;-16
2023/07/27 02:29:07;;;;;;;;;;;;;;;;;;5116969;28;19915;-19
2023/07/27 02:31:33;;;;;;;;;;;;;;;;;;5116309;28;19919;-15
2023/07/27 02:33:59;;;;;;;;;;;;;;;;;;5116812;28;20281;-16
2023/07/27 02:36:25;;;;;;;;;;;;;;;;;;5116239;28;19915;-16
2023/07/27 02:38:51;;;;;;;;;;;;;;;;;;5116239;28;19907;-16
2023/07/27 02:41:17;;;;;;;;;;;;;;;;;;5098261;28;20360;-16
2023/07/27 02:43:43;;;;;;;;;;;;;;;;;;5116611;28;19954;-15
2023/07/27 02:46:09;;;;;;;;;;;;;;;;;;5115275;28;19911;-16
2023/07/27 02:48:35;;;;;;;;;;;;;;;;;;5116010;28;19919;-14
2023/07/27 02:51:01;;;;;;;;;;;;;;;;;;5115988;28;19914;-16
2023/07/27 02:53:27;;;;;;;;;;;;;;;;;;5115901;28;20334;-17
2023/07/27 02:55:53;;;;;;;;;;;;;;;;;;5098004;28;20394;-15
2023/07/27 02:58:19;;;;;;;;;;;;;;;;;;5116438;28;19991;-16
2023/07/27 03:00:45;;;;;;;;;;;;;;;;;;5115844;28;19908;-16
2023/07/27 03:03:12;;;;;;;;;;;;;;;;;;5116005;28;19911;-17
2023/07/27 03:05:38;;;;;;;;;;;;;;;;;;5116212;28;19919;-15
2023/07/27 03:08:04;;;;;;;;;;;;;;;;;;5115731;28;19908;-16
2023/07/27 03:10:30;;;;;;;;;;;;;;;;;;5115908;28;19908;-14
2023/07/27 03:12:56;;;;;;;;;;;;;;;;;;5115514;28;19918;-15
2023/07/27 03:15:21;;;;;;;;;;;;;;;;;;5115591;28;19923;-16
2023/07/27 03:17:47;;;;;;;;;;;;;;;;;;5115532;28;19911;-16
2023/07/27 03:20:13;;;;;;;;;;;;;;;;;;5115597;28;20014;-16
2023/07/27 03:22:39;;;;;;;;;;;;;;;;;;5115429;28;19916;-15
2023/07/27 03:25:05;;;;;;;;;;;;;;;;;;5115288;28;19930;-16
2023/07/27 03:27:31;;;;;;;;;;;;;;;;;;5115711;28;19939;-15
2023/07/27 03:29:57;;;;;;;;;;;;;;;;;;5115472;28;20331;-15
2023/07/27 03:32:23;;;;;;;;;;;;;;;;;;5115608;28;19958;-16
2023/07/27 03:34:49;;;;;;;;;;;;;;;;;;5115883;28;20319;-15
2023/07/27 03:37:15;;;;;;;;;;;;;;;;;;5097415;28;20349;-16
2023/07/27 03:39:41;;;;;;;;;;;;;;;;;;5115251;28;19907;-16
2023/07/27 03:42:07;;;;;;;;;;;;;;;;;;5115176;28;19965;-15
2023/07/27 03:44:33;;;;;;;;;;;;;;;;;;5115114;28;19912;-16
2023/07/27 03:46:59;;;;;;;;;;;;;;;;;;5115503;28;19918;-17
2023/07/27 03:49:25;;;;;;;;;;;;;;;;;;5115166;28;20003;-16
2023/07/27 03:51:50;;;;;;;;;;;;;;;;;;5115063;28;20045;-16
2023/07/27 03:54:16;;;;;;;;;;;;;;;;;;5115123;28;19908;-15
2023/07/27 03:56:42;;;;;;;;;;;;;;;;;;5115825;28;19912;-15
2023/07/27 03:59:08;;;;;;;;;;;;;;;;;;5119710;28;20276;-17
2023/07/27 04:04:11;;;;;;;;;;;;;;;;;;5040863;22;19925;-21
2023/07/27 04:06:36;;;;;;;;;;;;;;;;;;5038120;28;19913;-21
2023/07/27 04:09:02;;;;;;;;;;;;;;;;;;5037168;28;20132;-21
2023/07/27 04:11:28;;;;;;;;;;;;;;;;;;5037834;28;19964;-20
2023/07/27 04:13:54;;;;;;;;;;;;;;;;;;5036915;28;19908;-20
2023/07/27 04:16:20;;;;;;;;;;;;;;;;;;5038149;28;19945;-21
2023/07/27 04:18:46;;;;;;;;;;;;;;;;;;5038034;28;19909;-21
2023/07/27 04:21:12;;;;;;;;;;;;;;;;;;5037638;28;19915;-23
2023/07/27 04:23:38;;;;;;;;;;;;;;;;;;5037571;28;19971;-21
2023/07/27 04:26:04;;;;;;;;;;;;;;;;;;5037611;28;20328;-22
2023/07/27 04:28:30;;;;;;;;;;;;;;;;;;5037750;28;19975;-22
2023/07/27 04:30:56;;;;;;;;;;;;;;;;;;5037636;28;19952;-21
2023/07/27 04:33:22;;;;;;;;;;;;;;;;;;5037496;28;19967;-22
2023/07/27 04:35:48;;;;;;;;;;;;;;;;;;5037336;28;19916;-19
2023/07/27 04:38:14;;;;;;;;;;;;;;;;;;5037410;28;19909;-21
2023/07/27 04:40:40;;;;;;;;;;;;;;;;;;5037519;28;19917;-21
2023/07/27 04:43:06;;;;;;;;;;;;;;;;;;5037342;28;19913;-21
2023/07/27 04:45:32;;;;;;;;;;;;;;;;;;5037298;28;20011;-24
2023/07/27 04:47:58;;;;;;;;;;;;;;;;;;5037366;28;19909;-21
2023/07/27 04:50:24;;;;;;;;;;;;;;;;;;5036216;28;19917;-22
2023/07/27 04:52:49;;;;;;;;;;;;;;;;;;5037262;28;19909;-23
2023/07/27 04:55:15;;;;;;;;;;;;;;;;;;5037461;28;20124;-21
2023/07/27 04:57:41;;;;;;;;;;;;;;;;;;5037212;28;19910;-20
2023/07/27 05:00:07;;;;;;;;;;;;;;;;;;5037089;28;20307;-21
2023/07/27 05:02:33;;;;;;;;;;;;;;;;;;5036625;28;19940;-21
2023/07/27 05:04:59;;;;;;;;;;;;;;;;;;5035895;28;19917;-23
2023/07/27 05:07:25;;;;;;;;;;;;;;;;;;5036750;28;19913;-20
2023/07/27 05:09:51;;;;;;;;;;;;;;;;;;5036251;28;19948;-21
2023/07/27 05:12:17;;;;;;;;;;;;;;;;;;5037003;28;19917;-24
2023/07/27 05:14:43;;;;;;;;;;;;;;;;;;5036752;28;19916;-21
2023/07/27 05:17:09;;;;;;;;;;;;;;;;;;5036638;28;20303;-21
2023/07/27 05:19:35;;;;;;;;;;;;;;;;;;5035529;28;19909;-21
2023/07/27 05:22:01;;;;;;;;;;;;;;;;;;5037076;28;19909;-20
2023/07/27 05:24:27;;;;;;;;;;;;;;;;;;5036441;28;19913;-20
2023/07/27 05:26:53;;;;;;;;;;;;;;;;;;5036640;28;19909;-22
2023/07/27 05:29:19;;;;;;;;;;;;;;;;;;5035375;28;19992;-21
2023/07/27 05:31:47;;;;;;;;;;;;;;;;;;5036316;28;19916;-27
2023/07/27 05:34:13;;;;;;;;;;;;;;;;;;5036255;28;19909;-21
2023/07/27 05:36:39;;;;;;;;;;;;;;;;;;5035271;28;20344;-23
2023/07/27 05:39:04;;;;;;;;;;;;;;;;;;5036302;28;20364;-21
2023/07/27 05:41:30;;;;;;;;;;;;;;;;;;5036490;28;19909;-21
2023/07/27 05:43:56;;;;;;;;;;;;;;;;;;5036140;28;19909;-22
2023/07/27 05:46:22;;;;;;;;;;;;;;;;;;5035896;28;19924;-21
2023/07/27 05:48:48;;;;;;;;;;;;;;;;;;5036063;28;19944;-21
2023/07/27 05:51:14;;;;;;;;;;;;;;;;;;5034857;28;19909;-22
2023/07/27 05:53:40;;;;;;;;;;;;;;;;;;5035822;28;19920;-20
2023/07/27 05:56:06;;;;;;;;;;;;;;;;;;5035799;28;20216;-21
2023/07/27 05:58:32;;;;;;;;;;;;;;;;;;5034694;28;19974;-23
2023/07/27 06:00:59;;;;;;;;;;;;;;;;;;5035812;28;20365;-22
2023/07/27 06:03:25;;;;;;;;;;;;;;;;;;5034223;28;20351;-21
2023/07/27 06:05:51;;;;;;;;;;;;;;;;;;5035524;28;19913;-23
2023/07/27 06:08:17;;;;;;;;;;;;;;;;;;5035766;28;19957;-21
2023/07/27 06:10:43;;;;;;;;;;;;;;;;;;5035568;28;20304;-21
2023/07/27 06:13:09;;;;;;;;;;;;;;;;;;5034278;28;19992;-20
2023/07/27 06:15:35;;;;;;;;;;;;;;;;;;5034801;28;20003;-21
2023/07/27 06:18:00;;;;;;;;;;;;;;;;;;5034848;28;19909;-21
2023/07/27 06:20:26;;;;;;;;;;;;;;;;;;5034972;28;19909;-21
2023/07/27 06:22:52;;;;;;;;;;;;;;;;;;5034570;28;19951;-23
2023/07/27 06:25:18;;;;;;;;;;;;;;;;;;5034602;28;19920;-21
2023/07/27 06:27:44;;;;;;;;;;;;;;;;;;5034787;28;19909;-21
2023/07/27 06:30:12;;;;;;;;;;;;;;;;;;5034794;28;19909;-20
2023/07/27 06:32:38;;;;;;;;;;;;;;;;;;5033538;28;20315;-24
2023/07/27 06:35:04;;;;;;;;;;;;;;;;;;5033453;28;19964;-22
2023/07/27 06:37:30;;;;;;;;;;;;;;;;;;5034952;28;19909;-21
2023/07/27 06:39:56;;;;;;;;;;;;;;;;;;5034033;28;19913;-20
2023/07/27 06:42:22;;;;;;;;;;;;;;;;;;5035399;28;20010;-21
2023/07/27 06:44:48;;;;;;;;;;;;;;;;;;5035049;28;19913;-20
2023/07/27 06:47:14;;;;;;;;;;;;;;;;;;5035089;28;19921;-20
2023/07/27 06:49:40;;;;;;;;;;;;;;;;;;5034990;28;19909;-21
2023/07/27 06:52:08;;;;;;;;;;;;;;;;;;5034973;28;19909;-22
2023/07/27 06:54:34;;;;;;;;;;;;;;;;;;5033762;28;20336;-22
2023/07/27 06:57:01;;;;;;;;;;;;;;;;;;5035162;28;19916;-20
2023/07/27 06:59:26;;;;;;;;;;;;;;;;;;5033791;28;20339;-22
2023/07/27 07:01:54;;;;;;;;;;;;;;;;;;5033837;28;19961;-20
2023/07/27 07:04:20;;;;;;;;;;;;;;;;;;5033592;28;20252;-21
2023/07/27 07:06:46;;;;;;;;;;;;;;;;;;5034727;28;19913;-21
2023/07/27 07:09:12;;;;;;;;;;;;;;;;;;5033474;28;19909;-21
2023/07/27 07:11:38;;;;;;;;;;;;;;;;;;5034510;28;19917;-21
2023/07/27 07:14:04;;;;;;;;;;;;;;;;;;5034208;28;20027;-22
2023/07/27 07:16:30;;;;;;;;;;;;;;;;;;5033461;28;19909;-22
2023/07/27 07:18:56;;;;;;;;;;;;;;;;;;5034229;28;20119;-21
2023/07/27 07:21:22;;;;;;;;;;;;;;;;;;5034532;28;19917;-22
2023/07/27 07:23:48;;;;;;;;;;;;;;;;;;5034216;28;19928;-21
2023/07/27 07:26:14;;;;;;;;;;;;;;;;;;5032915;28;19913;-22
2023/07/27 07:28:40;;;;;;;;;;;;;;;;;;5034525;28;19909;-21
2023/07/27 07:31:06;;;;;;;;;;;;;;;;;;5034153;28;19919;-22
2023/07/27 07:33:32;;;;;;;;;;;;;;;;;;5032956;28;19909;-23
2023/07/27 07:35:58;;;;;;;;;;;;;;;;;;5033630;28;19909;-20
2023/07/27 07:38:24;;;;;;;;;;;;;;;;;;5034423;28;19959;-21
2023/07/27 07:40:50;;;;;;;;;;;;;;;;;;5034274;28;19909;-21
2023/07/27 07:43:16;;;;;;;;;;;;;;;;;;5034000;28;19986;-20
2023/07/27 07:45:42;;;;;;;;;;;;;;;;;;5034048;28;19966;-22
2023/07/27 07:48:08;;;;;;;;;;;;;;;;;;5033964;28;20350;-20
2023/07/27 07:50:36;;;;;;;;;;;;;;;;;;5033149;28;19909;-20
2023/07/27 07:53:03;;;;;;;;;;;;;;;;;;5034070;28;20296;-20
2023/07/27 07:55:28;;;;;;;;;;;;;;;;;;5034068;28;19920;-21
2023/07/27 07:57:54;;;;;;;;;;;;;;;;;;5034430;28;19909;-21
2023/07/27 08:00:20;;;;;;;;;;;;;;;;;;5034328;28;19909;-23
2023/07/27 08:02:46;;;;;;;;;;;;;;;;;;5034082;28;19983;-21
2023/07/27 08:05:12;;;;;;;;;;;;;;;;;;5034142;28;19913;-22
2023/07/27 08:07:38;;;;;;;;;;;;;;;;;;5033909;28;19971;-20
2023/07/27 08:10:04;;;;;;;;;;;;;;;;;;5033793;28;19924;-20
2023/07/27 08:12:30;;;;;;;;;;;;;;;;;;5033973;28;20382;-20
2023/07/27 08:14:56;;;;;;;;;;;;;;;;;;5034095;28;19921;-22
2023/07/27 08:17:22;;;;;;;;;;;;;;;;;;5033864;28;19945;-21
2023/07/27 08:19:48;;;;;;;;;;;;;;;;;;5033630;28;20300;-22
2023/07/27 08:22:14;;;;;;;;;;;;;;;;;;5032661;28;19913;-20
2023/07/27 08:24:40;;;;;;;;;;;;;;;;;;5032713;28;19913;-22
2023/07/27 08:27:08;;;;;;;;;;;;;;;;;;5033464;28;20294;-21
2023/07/27 08:29:34;;;;;;;;;;;;;;;;;;5033674;28;19920;-21
2023/07/27 08:32:00;;;;;;;;;;;;;;;;;;5033678;28;20359;-21
2023/07/27 08:34:26;;;;;;;;;;;;;;;;;;5033846;28;19948;-20
2023/07/27 08:36:52;;;;;;;;;;;;;;;;;;5033578;28;19916;-21
2023/07/27 08:39:18;;;;;;;;;;;;;;;;;;5033507;28;19932;-21
2023/07/27 08:41:44;;;;;;;;;;;;;;;;;;5033517;28;19909;-22
2023/07/27 08:44:10;;;;;;;;;;;;;;;;;;5034434;28;19909;-21
2023/07/27 08:46:36;;;;;;;;;;;;;;;;;;5036812;28;19916;-20
2023/07/27 08:49:02;;;;;;;;;;;;;;;;;;5036763;28;20365;-21
2023/07/27 08:51:28;;;;;;;;;;;;;;;;;;5035448;28;19988;-22
2023/07/27 08:53:54;;;;;;;;;;;;;;;;;;5035465;28;19968;-22
2023/07/27 08:56:20;;;;;;;;;;;;;;;;;;5036488;28;20194;-21
2023/07/27 08:58:45;;;;;;;;;;;;;;;;;;5035218;28;19920;-22
2023/07/27 09:01:12;;;;;;;;;;;;;;;;;;5036630;28;19916;-21
2023/07/27 09:03:38;;;;;;;;;;;;;;;;;;5019316;28;19922;-21
2023/07/27 09:06:04;;;;;;;;;;;;;;;;;;5012077;28;19925;-20
2023/07/27 09:08:30;;;;;;;;;;;;;;;;;;4997038;28;19910;-20
2023/07/27 09:10:56;;;;;;;;;;;;;;;;;;4996997;28;20258;-21
2023/07/27 09:13:21;;;;;;;;;;;;;;;;;;4996946;28;19910;-22
2023/07/27 09:15:50;;;;;;;;;;;;;;;;;;4996789;28;19914;-22
2023/07/27 09:18:16;;;;;;;;;;;;;;;;;;4996879;28;19918;-21
2023/07/27 09:20:42;;;;;;;;;;;;;;;;;;4997342;28;20008;-22
2023/07/27 09:23:08;;;;;;;;;;;;;;;;;;4996939;28;20246;-21
2023/07/27 09:25:34;;;;;;;;;;;;;;;;;;4997191;28;20012;-21
2023/07/27 09:28:00;;;;;;;;;;;;;;;;;;4997132;28;19965;-22
2023/07/27 09:30:26;;;;;;;;;;;;;;;;;;5012466;28;20356;-21
2023/07/27 09:32:52;;;;;;;;;;;;;;;;;;5012381;28;19936;-21
2023/07/27 09:35:18;;;;;;;;;;;;;;;;;;4997151;28;19926;-24
2023/07/27 09:37:44;;;;;;;;;;;;;;;;;;4997072;28;20020;-21
2023/07/27 09:40:10;;;;;;;;;;;;;;;;;;5012310;28;19968;-20
2023/07/27 09:42:36;;;;;;;;;;;;;;;;;;4996959;28;20345;-22
2023/07/27 09:45:02;;;;;;;;;;;;;;;;;;4997444;28;20225;-20
2023/07/27 09:47:31;;;;;;;;;;;;;;;;;;4996959;28;19909;-21
2023/07/27 09:49:56;;;;;;;;;;;;;;;;;;4997027;28;19978;-22
2023/07/27 09:52:22;;;;;;;;;;;;;;;;;;4997055;28;19956;-21
2023/07/27 09:54:48;;;;;;;;;;;;;;;;;;4996426;28;19909;-23
2023/07/27 09:57:14;;;;;;;;;;;;;;;;;;4996742;28;19973;-20
2023/07/27 09:59:40;;;;;;;;;;;;;;;;;;4996636;28;19945;-21
2023/07/27 10:02:06;;;;;;;;;;;;;;;;;;4996546;28;19917;-21
2023/07/27 10:04:32;;;;;;;;;;;;;;;;;;5036224;28;20018;-21
2023/07/27 10:06:58;;;;;;;;;;;;;;;;;;5036093;28;19909;-23
2023/07/27 10:09:24;;;;;;;;;;;;;;;;;;5035869;28;19909;-21
2023/07/27 10:11:50;;;;;;;;;;;;;;;;;;5035921;28;20378;-21
2023/07/27 10:14:16;;;;;;;;;;;;;;;;;;5036045;28;19917;-21
2023/07/27 10:16:42;;;;;;;;;;;;;;;;;;5035743;28;19909;-20
2023/07/27 10:19:10;;;;;;;;;;;;;;;;;;5035651;28;20314;-22
2023/07/27 10:21:36;;;;;;;;;;;;;;;;;;5035532;28;20233;-20
2023/07/27 10:24:02;;;;;;;;;;;;;;;;;;5035560;28;19936;-22
2023/07/27 10:26:28;;;;;;;;;;;;;;;;;;5035567;28;19979;-22
2023/07/27 10:28:54;;;;;;;;;;;;;;;;;;5035220;28;19913;-22
2023/07/27 10:31:21;;;;;;;;;;;;;;;;;;5035229;28;19909;-22
2023/07/27 10:33:47;;;;;;;;;;;;;;;;;;5034057;28;20313;-23
2023/07/27 10:36:13;;;;;;;;;;;;;;;;;;5035484;28;20008;-22
2023/07/27 10:38:39;;;;;;;;;;;;;;;;;;5035256;28;20259;-21
2023/07/27 10:41:05;;;;;;;;;;;;;;;;;;5035102;28;20262;-21
2023/07/27 10:43:30;;;;;;;;;;;;;;;;;;5035190;28;19909;-23
2023/07/27 10:45:56;;;;;;;;;;;;;;;;;;5033946;28;19913;-22
2023/07/27 10:48:22;;;;;;;;;;;;;;;;;;5034998;28;19951;-23
2023/07/27 10:50:48;;;;;;;;;;;;;;;;;;5035206;28;19909;-22
2023/07/27 10:53:14;;;;;;;;;;;;;;;;;;5033890;28;20014;-21
2023/07/27 10:55:40;;;;;;;;;;;;;;;;;;5034844;28;19916;-22
2023/07/27 10:58:07;;;;;;;;;;;;;;;;;;5033554;28;20273;-22
2023/07/27 11:00:33;;;;;;;;;;;;;;;;;;5033086;28;19956;-20
2023/07/27 11:02:59;;;;;;;;;;;;;;;;;;5033767;28;19960;-20
2023/07/27 11:05:25;;;;;;;;;;;;;;;;;;5034096;28;19979;-21
2023/07/27 11:07:51;;;;;;;;;;;;;;;;;;5032227;28;19963;-20
2023/07/27 11:10:17;;;;;;;;;;;;;;;;;;5032965;28;19909;-20
2023/07/27 11:12:43;;;;;;;;;;;;;;;;;;5032848;28;19909;-23
2023/07/27 11:15:09;;;;;;;;;;;;;;;;;;5032970;28;19979;-21
2023/07/27 11:17:35;;;;;;;;;;;;;;;;;;5033965;28;19909;-22
2023/07/27 11:20:02;;;;;;;;;;;;;;;;;;5034012;28;20000;-20
2023/07/27 11:22:28;;;;;;;;;;;;;;;;;;5034287;28;19909;-21
2023/07/27 11:24:54;;;;;;;;;;;;;;;;;;5034406;28;19924;-20
2023/07/27 11:27:23;;;;;;;;;;;;;;;;;;5034619;28;20211;-22
2023/07/27 11:29:49;;;;;;;;;;;;;;;;;;5034628;28;20331;-20
2023/07/27 11:32:15;;;;;;;;;;;;;;;;;;5034281;28;20340;-20
2023/07/27 11:34:41;;;;;;;;;;;;;;;;;;5034878;28;20007;-20
2023/07/27 11:37:07;;;;;;;;;;;;;;;;;;5033502;28;20331;-21
2023/07/27 11:39:34;;;;;;;;;;;;;;;;;;5034372;28;20011;-21
2023/07/27 11:42:00;;;;;;;;;;;;;;;;;;5032958;28;19905;-21
2023/07/27 11:44:26;;;;;;;;;;;;;;;;;;5034219;28;19913;-20
2023/07/27 11:46:52;;;;;;;;;;;;;;;;;;5034283;28;19975;-20
2023/07/27 11:49:18;;;;;;;;;;;;;;;;;;5033282;28;20255;-21
2023/07/27 11:51:44;;;;;;;;;;;;;;;;;;5034301;28;19960;-20
2023/07/27 11:54:10;;;;;;;;;;;;;;;;;;5033010;28;19956;-21
2023/07/27 11:56:36;;;;;;;;;;;;;;;;;;5034294;28;19927;-23
2023/07/27 11:59:02;;;;;;;;;;;;;;;;;;5032986;28;20003;-21
2023/07/27 12:01:28;;;;;;;;;;;;;;;;;;5034024;28;19966;-21
2023/07/27 12:03:54;;;;;;;;;;;;;;;;;;5033891;28;19951;-20
2023/07/27 12:06:20;;;;;;;;;;;;;;;;;;5033068;28;19923;-23
2023/07/27 12:08:46;;;;;;;;;;;;;;;;;;5034190;28;20000;-23
2023/07/27 12:11:12;;;;;;;;;;;;;;;;;;5033627;28;19971;-22
2023/07/27 12:13:38;;;;;;;;;;;;;;;;;;5032977;28;19919;-20
2023/07/27 12:16:06;;;;;;;;;;;;;;;;;;5034452;28;19909;-20
2023/07/27 12:18:32;;;;;;;;;;;;;;;;;;5035834;28;19916;-21
2023/07/27 12:20:58;;;;;;;;;;;;;;;;;;5038018;28;19909;-20
2023/07/27 12:23:25;;;;;;;;;;;;;;;;;;5037878;28;19975;-21
2023/07/27 12:25:51;;;;;;;;;;;;;;;;;;5037760;28;19913;-22
2023/07/27 12:28:17;;;;;;;;;;;;;;;;;;5038148;28;19909;-22
2023/07/27 12:30:43;;;;;;;;;;;;;;;;;;5036904;28;19959;-22
2023/07/27 12:33:09;;;;;;;;;;;;;;;;;;5037707;28;19992;-20
2023/07/27 12:35:35;;;;;;;;;;;;;;;;;;5037707;28;19910;-21
2023/07/27 12:38:01;;;;;;;;;;;;;;;;;;5037569;28;19927;-21
2023/07/27 12:40:27;;;;;;;;;;;;;;;;;;5037367;28;19913;-23
2023/07/27 12:42:53;;;;;;;;;;;;;;;;;;5036166;28;20000;-21
2023/07/27 12:45:19;;;;;;;;;;;;;;;;;;5037288;28;19913;-20
2023/07/27 12:47:45;;;;;;;;;;;;;;;;;;5037295;28;20011;-21
2023/07/27 12:50:11;;;;;;;;;;;;;;;;;;5037496;28;19910;-21
2023/07/27 12:52:38;;;;;;;;;;;;;;;;;;5037182;28;19909;-23
2023/07/27 12:55:04;;;;;;;;;;;;;;;;;;5036158;28;20233;-21
2023/07/27 12:57:30;;;;;;;;;;;;;;;;;;5036119;28;19916;-23
2023/07/27 12:59:56;;;;;;;;;;;;;;;;;;5037081;28;19971;-23
2023/07/27 13:02:22;;;;;;;;;;;;;;;;;;5035699;28;20266;-20
2023/07/27 13:04:48;;;;;;;;;;;;;;;;;;5037367;28;19913;-20
2023/07/27 13:07:14;;;;;;;;;;;;;;;;;;5037062;28;19920;-20
2023/07/27 13:09:40;;;;;;;;;;;;;;;;;;5036832;28;19909;-22
2023/07/27 13:12:06;;;;;;;;;;;;;;;;;;5036674;28;19988;-21
2023/07/27 13:14:32;;;;;;;;;;;;;;;;;;5035416;28;19967;-24
2023/07/27 13:16:58;;;;;;;;;;;;;;;;;;5036427;28;19909;-21
2023/07/27 13:19:24;;;;;;;;;;;;;;;;;;5036302;28;20387;-21
2023/07/27 13:21:50;;;;;;;;;;;;;;;;;;5036556;28;19909;-22
2023/07/27 13:24:16;;;;;;;;;;;;;;;;;;5036711;28;19913;-22
2023/07/27 13:26:42;;;;;;;;;;;;;;;;;;5036323;28;19913;-22
2023/07/27 13:29:10;;;;;;;;;;;;;;;;;;5036274;28;19909;-21
2023/07/27 13:31:36;;;;;;;;;;;;;;;;;;5034866;28;20427;-22
2023/07/27 13:34:02;;;;;;;;;;;;;;;;;;5036303;28;19959;-19
2023/07/27 13:36:28;;;;;;;;;;;;;;;;;;5036529;28;19916;-20
2023/07/27 13:38:54;;;;;;;;;;;;;;;;;;5036707;28;19909;-21
2023/07/27 13:41:20;;;;;;;;;;;;;;;;;;5036595;28;19967;-23
2023/07/27 13:43:46;;;;;;;;;;;;;;;;;;5035156;28;19924;-21
2023/07/27 13:46:12;;;;;;;;;;;;;;;;;;5036287;28;19913;-22
2023/07/27 13:48:38;;;;;;;;;;;;;;;;;;5035091;28;19919;-20
2023/07/27 13:51:04;;;;;;;;;;;;;;;;;;5036354;28;19909;-19
2023/07/27 13:53:30;;;;;;;;;;;;;;;;;;5036046;28;19909;-20
2023/07/27 13:55:56;;;;;;;;;;;;;;;;;;5035989;28;20332;-21
2023/07/27 13:58:22;;;;;;;;;;;;;;;;;;5035684;28;20016;-22
2023/07/27 14:00:49;;;;;;;;;;;;;;;;;;5035840;28;19910;-22
2023/07/27 14:03:15;;;;;;;;;;;;;;;;;;5035468;28;20007;-21
2023/07/27 14:05:41;;;;;;;;;;;;;;;;;;5035533;28;20359;-20
2023/07/27 14:08:07;;;;;;;;;;;;;;;;;;5035480;28;19910;-21
2023/07/27 14:10:33;;;;;;;;;;;;;;;;;;5035431;28;19967;-21
2023/07/27 14:12:59;;;;;;;;;;;;;;;;;;5035498;28;19910;-22
2023/07/27 14:15:25;;;;;;;;;;;;;;;;;;5035664;28;19909;-20
2023/07/27 14:17:51;;;;;;;;;;;;;;;;;;5035753;28;19920;-21
2023/07/27 14:20:17;;;;;;;;;;;;;;;;;;5035483;28;19979;-23
2023/07/27 14:22:43;;;;;;;;;;;;;;;;;;5035541;28;19909;-21
2023/07/27 14:25:09;;;;;;;;;;;;;;;;;;5034941;28;19913;-21
2023/07/27 14:27:35;;;;;;;;;;;;;;;;;;5035025;28;19975;-21
2023/07/27 14:30:01;;;;;;;;;;;;;;;;;;5035335;28;20359;-21
2023/07/27 14:32:27;;;;;;;;;;;;;;;;;;5035413;28;19909;-24
2023/07/27 14:34:53;;;;;;;;;;;;;;;;;;5035722;28;19909;-22
2023/07/27 14:37:19;;;;;;;;;;;;;;;;;;5035555;28;20386;-22
2023/07/27 14:39:45;;;;;;;;;;;;;;;;;;5035414;28;20214;-21
2023/07/27 14:42:11;;;;;;;;;;;;;;;;;;5034035;28;19910;-21
2023/07/27 14:44:37;;;;;;;;;;;;;;;;;;5034084;28;19994;-21
2023/07/27 14:47:03;;;;;;;;;;;;;;;;;;5035094;28;19957;-23
2023/07/27 14:49:29;;;;;;;;;;;;;;;;;;5035063;28;19913;-22
2023/07/27 14:51:55;;;;;;;;;;;;;;;;;;5035007;28;19917;-21
2023/07/27 14:54:21;;;;;;;;;;;;;;;;;;5034030;28;19909;-20
2023/07/27 14:56:48;;;;;;;;;;;;;;;;;;5035127;28;20322;-20
2023/07/27 14:59:14;;;;;;;;;;;;;;;;;;5035138;28;20019;-21
2023/07/27 15:01:40;;;;;;;;;;;;;;;;;;5034656;28;19932;-20
2023/07/27 15:04:06;;;;;;;;;;;;;;;;;;5034211;28;19925;-22
2023/07/27 15:06:32;;;;;;;;;;;;;;;;;;5034553;28;19940;-23
2023/07/27 15:09:00;;;;;;;;;;;;;;;;;;5034774;28;19935;-21
2023/07/27 15:11:26;;;;;;;;;;;;;;;;;;5033619;28;20337;-23
2023/07/27 15:13:52;;;;;;;;;;;;;;;;;;5033347;28;20232;-21
2023/07/27 15:16:18;;;;;;;;;;;;;;;;;;5034088;28;19909;-20
2023/07/27 15:18:44;;;;;;;;;;;;;;;;;;5033394;28;19909;-20
2023/07/27 15:21:10;;;;;;;;;;;;;;;;;;5034300;28;19909;-21
2023/07/27 15:23:36;;;;;;;;;;;;;;;;;;5033906;28;19920;-22
2023/07/27 15:26:02;;;;;;;;;;;;;;;;;;5033882;28;19913;-23
2023/07/27 15:28:28;;;;;;;;;;;;;;;;;;5034421;28;19948;-22
2023/07/27 15:30:56;;;;;;;;;;;;;;;;;;5034015;28;19913;-21
2023/07/27 15:33:22;;;;;;;;;;;;;;;;;;5032715;28;20003;-21
2023/07/27 15:35:48;;;;;;;;;;;;;;;;;;5033687;28;20014;-22
2023/07/27 15:38:14;;;;;;;;;;;;;;;;;;5033206;28;19909;-20
2023/07/27 15:40:40;;;;;;;;;;;;;;;;;;5033904;28;19967;-20
2023/07/27 15:43:06;;;;;;;;;;;;;;;;;;5033919;28;19962;-20
2023/07/27 15:45:32;;;;;;;;;;;;;;;;;;5034095;28;19913;-22
2023/07/27 15:47:58;;;;;;;;;;;;;;;;;;5032981;28;20024;-21
2023/07/27 15:50:24;;;;;;;;;;;;;;;;;;5033101;28;20251;-21
2023/07/27 15:52:50;;;;;;;;;;;;;;;;;;5033547;28;19945;-18
2023/07/27 15:55:16;;;;;;;;;;;;;;;;;;5038578;28;19913;-20
2023/07/27 15:57:42;;;;;;;;;;;;;;;;;;5038106;28;20233;-22
2023/07/27 16:00:09;;;;;;;;;;;;;;;;;;5038089;28;19917;-21
2023/07/27 16:02:35;;;;;;;;;;;;;;;;;;5037811;28;19917;-22
2023/07/27 16:05:01;;;;;;;;;;;;;;;;;;5038282;28;19913;-22
2023/07/27 16:07:27;;;;;;;;;;;;;;;;;;5038448;28;20251;-21
2023/07/27 16:09:53;;;;;;;;;;;;;;;;;;5037140;28;19959;-20
2023/07/27 16:12:19;;;;;;;;;;;;;;;;;;5038101;28;19909;-20
2023/07/27 16:14:45;;;;;;;;;;;;;;;;;;5037965;28;19963;-21
2023/07/27 16:17:11;;;;;;;;;;;;;;;;;;5037693;28;19929;-23
2023/07/27 16:19:37;;;;;;;;;;;;;;;;;;5036606;28;20348;-23
2023/07/27 16:22:03;;;;;;;;;;;;;;;;;;5037784;28;20352;-22
2023/07/27 16:24:29;;;;;;;;;;;;;;;;;;5037498;28;19920;-20
2023/07/27 16:26:55;;;;;;;;;;;;;;;;;;5036777;28;19913;-21
2023/07/27 16:29:21;;;;;;;;;;;;;;;;;;5036573;28;20000;-22
2023/07/27 16:31:47;;;;;;;;;;;;;;;;;;5037642;28;19996;-23
2023/07/27 16:34:13;;;;;;;;;;;;;;;;;;5037615;28;20016;-20
2023/07/27 16:36:40;;;;;;;;;;;;;;;;;;5037434;28;19913;-21
2023/07/27 16:39:06;;;;;;;;;;;;;;;;;;5037617;28;20256;-19